sensor_id;sensor_type;location;lat;lon;timestamp;pressure;altitude;pressure_sealevel;temperature;humidity
45991;BME280;31721;41.740;-88.000;2024-03-17T00:00:07;98087.77;;;8.09;35.55
45991;BME280;31721;41.740;-88.000;2024-03-17T00:02:35;98090.37;;;8.18;35.36
45991;BME280;31721;41.740;-88.000;2024-03-17T00:05:03;98097.08;;;7.92;35.66
45991;BME280;31721;41.740;-88.000;2024-03-17T00:07:31;98093.44;;;8.16;35.52
45991;BME280;31721;41.740;-88.000;2024-03-17T00:09:59;98099.45;;;7.51;35.89
45991;BME280;31721;41.740;-88.000;2024-03-17T00:12:26;98107.49;;;7.88;35.54
45991;BME280;31721;41.740;-88.000;2024-03-17T00:14:54;98096.31;;;7.40;35.59
45991;BME280;31721;41.740;-88.000;2024-03-17T00:17:23;98113.98;;;7.85;35.01
45991;BME280;31721;41.740;-88.000;2024-03-17T00:19:51;98098.54;;;7.80;34.54
45991;BME280;31721;41.740;-88.000;2024-03-17T00:22:18;98095.45;;;7.54;34.81
45991;BME280;31721;41.740;-88.000;2024-03-17T00:24:46;98098.19;;;7.27;35.02
45991;BME280;31721;41.740;-88.000;2024-03-17T00:27:14;98104.15;;;7.67;35.05
45991;BME280;31721;41.740;-88.000;2024-03-17T00:29:42;98111.17;;;7.93;34.93
45991;BME280;31721;41.740;-88.000;2024-03-17T00:32:09;98108.49;;;7.60;34.79
45991;BME280;31721;41.740;-88.000;2024-03-17T00:34:37;98107.25;;;8.04;34.67
45991;BME280;31721;41.740;-88.000;2024-03-17T00:37:05;98108.24;;;8.11;34.44
45991;BME280;31721;41.740;-88.000;2024-03-17T00:39:33;98108.78;;;7.98;34.59
45991;BME280;31721;41.740;-88.000;2024-03-17T00:42:01;98111.34;;;7.83;34.91
45991;BME280;31721;41.740;-88.000;2024-03-17T00:44:28;98106.61;;;7.65;35.54
45991;BME280;31721;41.740;-88.000;2024-03-17T00:46:56;98113.63;;;7.80;34.95
45991;BME280;31721;41.740;-88.000;2024-03-17T00:49:24;98121.10;;;7.24;35.36
45991;BME280;31721;41.740;-88.000;2024-03-17T00:51:52;98105.73;;;7.40;35.36
45991;BME280;31721;41.740;-88.000;2024-03-17T00:54:20;98115.40;;;7.46;35.05
45991;BME280;31721;41.740;-88.000;2024-03-17T00:56:47;98111.89;;;7.40;35.40
45991;BME280;31721;41.740;-88.000;2024-03-17T00:59:14;98122.96;;;7.55;35.22
45991;BME280;31721;41.740;-88.000;2024-03-17T01:01:43;98126.52;;;7.54;35.14
45991;BME280;31721;41.740;-88.000;2024-03-17T01:04:11;98136.83;;;6.88;35.92
45991;BME280;31721;41.740;-88.000;2024-03-17T01:06:38;98134.24;;;6.74;36.38
45991;BME280;31721;41.740;-88.000;2024-03-17T01:09:06;98136.15;;;6.47;37.01
45991;BME280;31721;41.740;-88.000;2024-03-17T01:11:35;98140.70;;;6.55;36.74
45991;BME280;31721;41.740;-88.000;2024-03-17T01:14:03;98135.61;;;6.96;36.20
45991;BME280;31721;41.740;-88.000;2024-03-17T01:16:31;98142.59;;;6.63;36.47
45991;BME280;31721;41.740;-88.000;2024-03-17T01:18:59;98142.92;;;6.80;36.46
45991;BME280;31721;41.740;-88.000;2024-03-17T01:21:26;98152.53;;;7.13;36.14
45991;BME280;31721;41.740;-88.000;2024-03-17T01:23:54;98152.01;;;6.64;36.86
45991;BME280;31721;41.740;-88.000;2024-03-17T01:26:22;98160.56;;;6.93;36.42
45991;BME280;31721;41.740;-88.000;2024-03-17T01:28:50;98158.28;;;7.04;36.43
45991;BME280;31721;41.740;-88.000;2024-03-17T01:31:18;98160.78;;;7.08;36.12
45991;BME280;31721;41.740;-88.000;2024-03-17T01:33:46;98160.49;;;7.23;36.13
45991;BME280;31721;41.740;-88.000;2024-03-17T01:36:15;98158.12;;;6.89;36.37
45991;BME280;31721;41.740;-88.000;2024-03-17T01:38:43;98166.99;;;6.72;36.68
45991;BME280;31721;41.740;-88.000;2024-03-17T01:41:11;98168.74;;;6.70;36.81
45991;BME280;31721;41.740;-88.000;2024-03-17T01:43:38;98160.85;;;7.19;35.89
45991;BME280;31721;41.740;-88.000;2024-03-17T01:46:07;98167.52;;;6.99;36.29
45991;BME280;31721;41.740;-88.000;2024-03-17T01:48:37;98158.02;;;6.95;36.17
45991;BME280;31721;41.740;-88.000;2024-03-17T01:51:06;98161.69;;;6.96;36.23
45991;BME280;31721;41.740;-88.000;2024-03-17T01:53:35;98159.40;;;6.89;36.36
45991;BME280;31721;41.740;-88.000;2024-03-17T01:56:04;98157.12;;;6.65;36.31
45991;BME280;31721;41.740;-88.000;2024-03-17T01:58:33;98159.20;;;6.90;36.43
45991;BME280;31721;41.740;-88.000;2024-03-17T02:01:02;98159.40;;;6.77;36.60
45991;BME280;31721;41.740;-88.000;2024-03-17T02:03:30;98160.54;;;6.90;36.56
45991;BME280;31721;41.740;-88.000;2024-03-17T02:05:58;98165.67;;;6.92;36.52
45991;BME280;31721;41.740;-88.000;2024-03-17T02:08:26;98158.82;;;6.71;36.73
45991;BME280;31721;41.740;-88.000;2024-03-17T02:10:54;98164.64;;;6.92;36.73
45991;BME280;31721;41.740;-88.000;2024-03-17T02:13:22;98169.15;;;6.88;36.54
45991;BME280;31721;41.740;-88.000;2024-03-17T02:15:50;98171.97;;;6.70;37.44
45991;BME280;31721;41.740;-88.000;2024-03-17T02:18:18;98172.53;;;6.48;37.12
45991;BME280;31721;41.740;-88.000;2024-03-17T02:20:47;98167.79;;;6.56;37.17
45991;BME280;31721;41.740;-88.000;2024-03-17T02:23:15;98173.84;;;6.57;37.11
45991;BME280;31721;41.740;-88.000;2024-03-17T02:25:43;98174.72;;;7.02;36.95
45991;BME280;31721;41.740;-88.000;2024-03-17T02:28:11;98183.92;;;6.76;37.34
45991;BME280;31721;41.740;-88.000;2024-03-17T02:30:40;98185.84;;;6.68;37.00
45991;BME280;31721;41.740;-88.000;2024-03-17T02:33:08;98176.12;;;6.66;36.92
45991;BME280;31721;41.740;-88.000;2024-03-17T02:35:37;98183.02;;;6.60;37.38
45991;BME280;31721;41.740;-88.000;2024-03-17T02:38:04;98176.04;;;6.71;36.96
45991;BME280;31721;41.740;-88.000;2024-03-17T02:40:32;98173.42;;;6.52;37.65
45991;BME280;31721;41.740;-88.000;2024-03-17T02:43:00;98186.50;;;6.22;37.81
45991;BME280;31721;41.740;-88.000;2024-03-17T02:45:28;98176.04;;;5.96;37.91
45991;BME280;31721;41.740;-88.000;2024-03-17T02:47:56;98180.57;;;6.48;37.34
45991;BME280;31721;41.740;-88.000;2024-03-17T02:50:24;98180.56;;;6.40;37.66
45991;BME280;31721;41.740;-88.000;2024-03-17T02:52:51;98179.88;;;6.32;37.38
45991;BME280;31721;41.740;-88.000;2024-03-17T02:55:19;98179.60;;;6.34;37.36
45991;BME280;31721;41.740;-88.000;2024-03-17T02:57:46;98180.44;;;6.42;37.47
45991;BME280;31721;41.740;-88.000;2024-03-17T03:00:15;98174.25;;;6.28;37.55
45991;BME280;31721;41.740;-88.000;2024-03-17T03:02:43;98177.47;;;6.56;37.16
45991;BME280;31721;41.740;-88.000;2024-03-17T03:05:11;98174.63;;;6.41;37.67
45991;BME280;31721;41.740;-88.000;2024-03-17T03:07:38;98175.25;;;6.58;37.07
45991;BME280;31721;41.740;-88.000;2024-03-17T03:10:06;98169.23;;;6.88;37.10
45991;BME280;31721;41.740;-88.000;2024-03-17T03:12:34;98172.86;;;6.99;37.00
45991;BME280;31721;41.740;-88.000;2024-03-17T03:15:01;98167.88;;;7.09;36.93
45991;BME280;31721;41.740;-88.000;2024-03-17T03:17:29;98175.48;;;7.16;36.67
45991;BME280;31721;41.740;-88.000;2024-03-17T03:19:56;98167.24;;;7.26;36.82
45991;BME280;31721;41.740;-88.000;2024-03-17T03:22:24;98172.26;;;7.03;37.21
45991;BME280;31721;41.740;-88.000;2024-03-17T03:24:52;98175.21;;;7.00;37.34
45991;BME280;31721;41.740;-88.000;2024-03-17T03:27:20;98177.45;;;6.65;37.68
45991;BME280;31721;41.740;-88.000;2024-03-17T03:29:47;98175.82;;;6.67;37.44
45991;BME280;31721;41.740;-88.000;2024-03-17T03:32:15;98172.43;;;6.29;38.06
45991;BME280;31721;41.740;-88.000;2024-03-17T03:34:43;98173.61;;;6.49;37.98
45991;BME280;31721;41.740;-88.000;2024-03-17T03:37:10;98169.04;;;6.42;38.35
45991;BME280;31721;41.740;-88.000;2024-03-17T03:39:38;98173.83;;;6.22;39.66
45991;BME280;31721;41.740;-88.000;2024-03-17T03:42:06;98169.90;;;6.39;38.52
45991;BME280;31721;41.740;-88.000;2024-03-17T03:44:34;98171.57;;;6.62;38.83
45991;BME280;31721;41.740;-88.000;2024-03-17T03:47:01;98169.29;;;6.32;39.26
45991;BME280;31721;41.740;-88.000;2024-03-17T03:49:28;98169.94;;;6.59;39.18
45991;BME280;31721;41.740;-88.000;2024-03-17T03:51:56;98174.17;;;6.19;39.07
45991;BME280;31721;41.740;-88.000;2024-03-17T03:54:23;98174.19;;;6.17;39.41
45991;BME280;31721;41.740;-88.000;2024-03-17T03:56:51;98171.29;;;6.18;39.63
45991;BME280;31721;41.740;-88.000;2024-03-17T03:59:18;98170.38;;;6.40;39.63
45991;BME280;31721;41.740;-88.000;2024-03-17T04:01:47;98167.01;;;6.14;39.67
45991;BME280;31721;41.740;-88.000;2024-03-17T04:04:15;98162.64;;;5.97;39.65
45991;BME280;31721;41.740;-88.000;2024-03-17T04:06:43;98163.30;;;6.23;40.31
45991;BME280;31721;41.740;-88.000;2024-03-17T04:09:15;98161.90;;;5.84;39.77
45991;BME280;31721;41.740;-88.000;2024-03-17T04:11:43;98166.17;;;6.05;40.16
45991;BME280;31721;41.740;-88.000;2024-03-17T04:14:10;98165.28;;;6.00;40.34
45991;BME280;31721;41.740;-88.000;2024-03-17T04:16:38;98164.77;;;5.70;40.87
45991;BME280;31721;41.740;-88.000;2024-03-17T04:19:06;98166.85;;;5.85;40.63
45991;BME280;31721;41.740;-88.000;2024-03-17T04:21:33;98163.54;;;5.80;40.55
45991;BME280;31721;41.740;-88.000;2024-03-17T04:24:00;98160.44;;;5.71;40.65
45991;BME280;31721;41.740;-88.000;2024-03-17T04:26:28;98165.35;;;5.84;40.58
45991;BME280;31721;41.740;-88.000;2024-03-17T04:28:56;98158.10;;;5.86;40.66
45991;BME280;31721;41.740;-88.000;2024-03-17T04:31:23;98158.62;;;5.97;40.62
45991;BME280;31721;41.740;-88.000;2024-03-17T04:33:51;98153.30;;;5.57;41.32
45991;BME280;31721;41.740;-88.000;2024-03-17T04:36:18;98151.91;;;5.78;40.48
45991;BME280;31721;41.740;-88.000;2024-03-17T04:38:45;98151.12;;;5.86;40.50
45991;BME280;31721;41.740;-88.000;2024-03-17T04:41:15;98145.76;;;5.37;40.93
45991;BME280;31721;41.740;-88.000;2024-03-17T04:43:43;98149.58;;;5.60;41.12
45991;BME280;31721;41.740;-88.000;2024-03-17T04:46:10;98150.23;;;5.79;40.50
45991;BME280;31721;41.740;-88.000;2024-03-17T04:48:38;98146.68;;;5.75;40.34
45991;BME280;31721;41.740;-88.000;2024-03-17T04:51:06;98148.06;;;5.82;40.20
45991;BME280;31721;41.740;-88.000;2024-03-17T04:53:34;98144.46;;;5.97;40.15
45991;BME280;31721;41.740;-88.000;2024-03-17T04:56:03;98144.90;;;5.85;39.99
45991;BME280;31721;41.740;-88.000;2024-03-17T04:58:31;98149.22;;;5.88;39.87
45991;BME280;31721;41.740;-88.000;2024-03-17T05:01:04;98146.12;;;6.05;39.51
45991;BME280;31721;41.740;-88.000;2024-03-17T05:03:32;98149.40;;;5.88;39.51
45991;BME280;31721;41.740;-88.000;2024-03-17T05:06:00;98146.43;;;5.68;39.73
45991;BME280;31721;41.740;-88.000;2024-03-17T05:08:28;98151.44;;;5.70;39.96
45991;BME280;31721;41.740;-88.000;2024-03-17T05:10:57;98149.29;;;5.79;40.08
45991;BME280;31721;41.740;-88.000;2024-03-17T05:13:26;98146.10;;;5.80;40.12
45991;BME280;31721;41.740;-88.000;2024-03-17T05:15:54;98147.84;;;5.52;40.35
45991;BME280;31721;41.740;-88.000;2024-03-17T05:18:22;98149.94;;;5.84;40.26
45991;BME280;31721;41.740;-88.000;2024-03-17T05:20:57;98149.87;;;5.76;40.32
45991;BME280;31721;41.740;-88.000;2024-03-17T05:23:26;98156.13;;;5.86;40.12
45991;BME280;31721;41.740;-88.000;2024-03-17T05:25:54;98161.93;;;5.77;40.43
45991;BME280;31721;41.740;-88.000;2024-03-17T05:28:22;98158.93;;;5.80;40.31
45991;BME280;31721;41.740;-88.000;2024-03-17T05:30:50;98159.83;;;6.09;39.89
45991;BME280;31721;41.740;-88.000;2024-03-17T05:33:18;98163.22;;;5.73;39.91
45991;BME280;31721;41.740;-88.000;2024-03-17T05:35:49;98163.40;;;5.63;40.13
45991;BME280;31721;41.740;-88.000;2024-03-17T05:38:17;98162.94;;;5.77;39.93
45991;BME280;31721;41.740;-88.000;2024-03-17T05:40:44;98166.03;;;5.55;39.79
45991;BME280;31721;41.740;-88.000;2024-03-17T05:43:12;98167.87;;;5.70;39.56
45991;BME280;31721;41.740;-88.000;2024-03-17T05:45:39;98166.53;;;5.52;39.21
45991;BME280;31721;41.740;-88.000;2024-03-17T05:48:07;98166.86;;;5.35;39.61
45991;BME280;31721;41.740;-88.000;2024-03-17T05:50:35;98164.56;;;5.20;39.78
45991;BME280;31721;41.740;-88.000;2024-03-17T05:53:03;98162.22;;;5.19;39.51
45991;BME280;31721;41.740;-88.000;2024-03-17T05:55:31;98162.74;;;5.34;39.50
45991;BME280;31721;41.740;-88.000;2024-03-17T05:58:02;98162.08;;;5.26;39.53
45991;BME280;31721;41.740;-88.000;2024-03-17T06:00:29;98163.11;;;5.09;39.60
45991;BME280;31721;41.740;-88.000;2024-03-17T06:02:57;98156.06;;;5.11;39.27
45991;BME280;31721;41.740;-88.000;2024-03-17T06:05:24;98155.66;;;4.98;38.98
45991;BME280;31721;41.740;-88.000;2024-03-17T06:07:52;98155.92;;;4.95;39.17
45991;BME280;31721;41.740;-88.000;2024-03-17T06:10:19;98159.02;;;4.54;39.12
45991;BME280;31721;41.740;-88.000;2024-03-17T06:12:46;98157.10;;;4.45;39.48
45991;BME280;31721;41.740;-88.000;2024-03-17T06:15:14;98158.95;;;4.52;39.24
45991;BME280;31721;41.740;-88.000;2024-03-17T06:17:41;98161.18;;;4.24;39.83
45991;BME280;31721;41.740;-88.000;2024-03-17T06:20:09;98160.39;;;4.48;39.44
45991;BME280;31721;41.740;-88.000;2024-03-17T06:22:37;98166.01;;;4.64;39.09
45991;BME280;31721;41.740;-88.000;2024-03-17T06:25:05;98163.74;;;4.59;39.35
45991;BME280;31721;41.740;-88.000;2024-03-17T06:27:33;98165.38;;;4.76;39.03
45991;BME280;31721;41.740;-88.000;2024-03-17T06:30:01;98163.39;;;4.62;39.25
45991;BME280;31721;41.740;-88.000;2024-03-17T06:32:29;98159.95;;;4.56;38.88
45991;BME280;31721;41.740;-88.000;2024-03-17T06:34:56;98162.33;;;4.26;39.20
45991;BME280;31721;41.740;-88.000;2024-03-17T06:37:24;98166.61;;;4.16;39.14
45991;BME280;31721;41.740;-88.000;2024-03-17T06:39:52;98164.48;;;4.22;39.86
45991;BME280;31721;41.740;-88.000;2024-03-17T06:42:19;98160.34;;;4.06;39.46
45991;BME280;31721;41.740;-88.000;2024-03-17T06:44:47;98166.16;;;3.96;39.47
45991;BME280;31721;41.740;-88.000;2024-03-17T06:47:14;98172.45;;;3.90;40.22
45991;BME280;31721;41.740;-88.000;2024-03-17T06:49:44;98177.88;;;3.96;40.07
45991;BME280;31721;41.740;-88.000;2024-03-17T06:52:12;98179.52;;;3.75;39.97
45991;BME280;31721;41.740;-88.000;2024-03-17T06:54:40;98179.96;;;3.83;40.24
45991;BME280;31721;41.740;-88.000;2024-03-17T06:57:08;98176.84;;;3.79;39.79
45991;BME280;31721;41.740;-88.000;2024-03-17T06:59:36;98178.17;;;3.40;39.46
45991;BME280;31721;41.740;-88.000;2024-03-17T07:02:05;98183.00;;;3.32;39.75
45991;BME280;31721;41.740;-88.000;2024-03-17T07:04:36;98185.88;;;3.37;39.84
45991;BME280;31721;41.740;-88.000;2024-03-17T07:07:04;98183.65;;;3.24;39.79
45991;BME280;31721;41.740;-88.000;2024-03-17T07:09:32;98188.57;;;3.43;39.84
45991;BME280;31721;41.740;-88.000;2024-03-17T07:12:00;98185.26;;;3.39;39.97
45991;BME280;31721;41.740;-88.000;2024-03-17T07:14:28;98187.89;;;3.40;39.76
45991;BME280;31721;41.740;-88.000;2024-03-17T07:16:56;98191.49;;;3.35;39.86
45991;BME280;31721;41.740;-88.000;2024-03-17T07:19:24;98187.36;;;3.39;39.85
45991;BME280;31721;41.740;-88.000;2024-03-17T07:21:52;98196.32;;;3.48;39.82
45991;BME280;31721;41.740;-88.000;2024-03-17T07:24:19;98197.81;;;3.48;39.71
45991;BME280;31721;41.740;-88.000;2024-03-17T07:26:48;98203.59;;;3.35;39.45
45991;BME280;31721;41.740;-88.000;2024-03-17T07:29:16;98202.85;;;3.29;39.56
45991;BME280;31721;41.740;-88.000;2024-03-17T07:31:44;98203.50;;;3.32;39.66
45991;BME280;31721;41.740;-88.000;2024-03-17T07:34:12;98200.60;;;3.28;39.13
45991;BME280;31721;41.740;-88.000;2024-03-17T07:36:40;98206.46;;;3.17;39.81
45991;BME280;31721;41.740;-88.000;2024-03-17T07:39:07;98206.02;;;2.81;39.61
45991;BME280;31721;41.740;-88.000;2024-03-17T07:41:35;98204.13;;;2.91;39.61
45991;BME280;31721;41.740;-88.000;2024-03-17T07:44:04;98206.61;;;2.61;39.88
45991;BME280;31721;41.740;-88.000;2024-03-17T07:46:32;98203.71;;;2.93;40.18
45991;BME280;31721;41.740;-88.000;2024-03-17T07:49:00;98200.85;;;2.96;39.93
45991;BME280;31721;41.740;-88.000;2024-03-17T07:51:28;98199.23;;;2.77;39.73
45991;BME280;31721;41.740;-88.000;2024-03-17T07:53:55;98197.14;;;2.51;40.25
45991;BME280;31721;41.740;-88.000;2024-03-17T07:56:22;98192.95;;;2.61;39.92
45991;BME280;31721;41.740;-88.000;2024-03-17T07:58:50;98191.84;;;2.80;40.22
45991;BME280;31721;41.740;-88.000;2024-03-17T08:01:18;98192.33;;;2.37;39.78
45991;BME280;31721;41.740;-88.000;2024-03-17T08:03:47;98194.61;;;2.60;40.06
45991;BME280;31721;41.740;-88.000;2024-03-17T08:06:14;98193.72;;;2.56;40.00
45991;BME280;31721;41.740;-88.000;2024-03-17T08:08:42;98197.85;;;2.83;40.24
45991;BME280;31721;41.740;-88.000;2024-03-17T08:11:09;98202.93;;;2.88;40.12
45991;BME280;31721;41.740;-88.000;2024-03-17T08:13:41;98200.03;;;2.51;40.00
45991;BME280;31721;41.740;-88.000;2024-03-17T08:16:09;98201.97;;;2.11;39.93
45991;BME280;31721;41.740;-88.000;2024-03-17T08:18:37;98204.22;;;2.29;40.37
45991;BME280;31721;41.740;-88.000;2024-03-17T08:21:05;98200.04;;;2.16;40.15
45991;BME280;31721;41.740;-88.000;2024-03-17T08:23:34;98198.54;;;2.02;40.04
45991;BME280;31721;41.740;-88.000;2024-03-17T08:26:01;98199.42;;;2.06;39.50
45991;BME280;31721;41.740;-88.000;2024-03-17T08:28:29;98192.63;;;2.02;40.35
45991;BME280;31721;41.740;-88.000;2024-03-17T08:30:58;98192.45;;;1.96;40.43
45991;BME280;31721;41.740;-88.000;2024-03-17T08:33:27;98189.13;;;1.61;40.34
45991;BME280;31721;41.740;-88.000;2024-03-17T08:35:56;98183.12;;;1.79;40.46
45991;BME280;31721;41.740;-88.000;2024-03-17T08:38:24;98186.19;;;1.49;40.47
45991;BME280;31721;41.740;-88.000;2024-03-17T08:40:54;98185.92;;;1.09;40.64
45991;BME280;31721;41.740;-88.000;2024-03-17T08:43:23;98177.09;;;1.58;41.12
45991;BME280;31721;41.740;-88.000;2024-03-17T08:45:55;98180.22;;;1.12;40.58
45991;BME280;31721;41.740;-88.000;2024-03-17T08:48:23;98180.28;;;1.19;40.59
45991;BME280;31721;41.740;-88.000;2024-03-17T08:50:51;98176.77;;;1.42;40.66
45991;BME280;31721;41.740;-88.000;2024-03-17T08:53:19;98180.36;;;1.64;40.39
45991;BME280;31721;41.740;-88.000;2024-03-17T08:55:46;98185.21;;;1.18;39.92
45991;BME280;31721;41.740;-88.000;2024-03-17T08:58:14;98185.51;;;1.58;40.58
45991;BME280;31721;41.740;-88.000;2024-03-17T09:00:43;98193.23;;;1.59;40.33
45991;BME280;31721;41.740;-88.000;2024-03-17T09:03:11;98190.13;;;1.66;40.67
45991;BME280;31721;41.740;-88.000;2024-03-17T09:05:39;98197.02;;;1.51;40.45
45991;BME280;31721;41.740;-88.000;2024-03-17T09:08:07;98200.33;;;1.59;40.48
45991;BME280;31721;41.740;-88.000;2024-03-17T09:10:39;98200.95;;;1.18;40.32
45991;BME280;31721;41.740;-88.000;2024-03-17T09:13:07;98199.26;;;1.41;40.27
45991;BME280;31721;41.740;-88.000;2024-03-17T09:15:35;98204.88;;;1.60;39.90
45991;BME280;31721;41.740;-88.000;2024-03-17T09:18:02;98213.58;;;1.64;39.67
45991;BME280;31721;41.740;-88.000;2024-03-17T09:20:29;98211.65;;;1.38;39.89
45991;BME280;31721;41.740;-88.000;2024-03-17T09:22:57;98217.32;;;1.35;39.92
45991;BME280;31721;41.740;-88.000;2024-03-17T09:25:25;98208.38;;;1.55;40.18
45991;BME280;31721;41.740;-88.000;2024-03-17T09:27:52;98209.54;;;1.19;39.92
45991;BME280;31721;41.740;-88.000;2024-03-17T09:30:20;98208.89;;;1.45;39.94
45991;BME280;31721;41.740;-88.000;2024-03-17T09:32:47;98221.55;;;1.52;39.67
45991;BME280;31721;41.740;-88.000;2024-03-17T09:35:15;98216.22;;;1.36;39.95
45991;BME280;31721;41.740;-88.000;2024-03-17T09:37:43;98220.30;;;1.52;40.01
45991;BME280;31721;41.740;-88.000;2024-03-17T09:40:14;98223.11;;;1.65;40.23
45991;BME280;31721;41.740;-88.000;2024-03-17T09:42:47;98222.08;;;1.59;40.07
45991;BME280;31721;41.740;-88.000;2024-03-17T09:45:15;98222.35;;;1.56;40.08
45991;BME280;31721;41.740;-88.000;2024-03-17T09:47:44;98225.95;;;1.50;39.89
45991;BME280;31721;41.740;-88.000;2024-03-17T09:50:13;98230.98;;;1.53;39.92
45991;BME280;31721;41.740;-88.000;2024-03-17T09:52:44;98230.87;;;1.76;40.02
45991;BME280;31721;41.740;-88.000;2024-03-17T09:55:16;98232.49;;;1.73;39.77
45991;BME280;31721;41.740;-88.000;2024-03-17T09:57:44;98235.45;;;1.49;39.80
45991;BME280;31721;41.740;-88.000;2024-03-17T10:00:14;98234.69;;;1.46;39.72
45991;BME280;31721;41.740;-88.000;2024-03-17T10:02:43;98235.85;;;1.30;39.73
45991;BME280;31721;41.740;-88.000;2024-03-17T10:05:19;98240.10;;;1.38;39.80
45991;BME280;31721;41.740;-88.000;2024-03-17T10:07:46;98241.92;;;1.29;39.49
45991;BME280;31721;41.740;-88.000;2024-03-17T10:10:14;98241.99;;;0.54;39.52
45991;BME280;31721;41.740;-88.000;2024-03-17T10:12:42;98239.86;;;1.24;39.63
45991;BME280;31721;41.740;-88.000;2024-03-17T10:15:11;98242.31;;;1.12;39.38
45991;BME280;31721;41.740;-88.000;2024-03-17T10:17:39;98233.55;;;1.29;39.30
45991;BME280;31721;41.740;-88.000;2024-03-17T10:20:21;98237.55;;;1.26;39.57
45991;BME280;31721;41.740;-88.000;2024-03-17T10:22:59;98240.20;;;1.07;38.32
45991;BME280;31721;41.740;-88.000;2024-03-17T10:25:28;98240.93;;;1.24;39.48
45991;BME280;31721;41.740;-88.000;2024-03-17T10:27:57;98250.75;;;1.27;39.32
45991;BME280;31721;41.740;-88.000;2024-03-17T10:30:25;98253.94;;;1.23;39.39
45991;BME280;31721;41.740;-88.000;2024-03-17T10:32:54;98249.75;;;1.37;39.19
45991;BME280;31721;41.740;-88.000;2024-03-17T10:35:30;98251.62;;;1.47;39.29
45991;BME280;31721;41.740;-88.000;2024-03-17T10:38:00;98251.37;;;1.30;38.96
45991;BME280;31721;41.740;-88.000;2024-03-17T10:40:29;98250.58;;;1.41;39.14
45991;BME280;31721;41.740;-88.000;2024-03-17T10:42:58;98251.49;;;1.54;39.06
45991;BME280;31721;41.740;-88.000;2024-03-17T10:45:27;98250.04;;;1.53;38.73
45991;BME280;31721;41.740;-88.000;2024-03-17T10:47:55;98251.60;;;1.61;38.86
45991;BME280;31721;41.740;-88.000;2024-03-17T10:50:23;98251.11;;;1.79;38.67
45991;BME280;31721;41.740;-88.000;2024-03-17T10:52:51;98253.89;;;1.70;38.65
45991;BME280;31721;41.740;-88.000;2024-03-17T10:55:22;98256.70;;;1.62;38.43
45991;BME280;31721;41.740;-88.000;2024-03-17T10:57:51;98259.66;;;1.57;38.62
45991;BME280;31721;41.740;-88.000;2024-03-17T11:00:21;98266.71;;;1.07;37.78
45991;BME280;31721;41.740;-88.000;2024-03-17T11:02:50;98267.09;;;1.35;38.30
45991;BME280;31721;41.740;-88.000;2024-03-17T11:05:20;98270.45;;;1.59;38.91
45991;BME280;31721;41.740;-88.000;2024-03-17T11:07:50;98272.98;;;1.48;38.80
45991;BME280;31721;41.740;-88.000;2024-03-17T11:10:21;98274.60;;;1.55;38.37
45991;BME280;31721;41.740;-88.000;2024-03-17T11:12:50;98275.70;;;1.33;38.57
45991;BME280;31721;41.740;-88.000;2024-03-17T11:15:46;98275.88;;;1.03;38.03
45991;BME280;31721;41.740;-88.000;2024-03-17T11:18:46;98270.97;;;1.24;38.56
45991;BME280;31721;41.740;-88.000;2024-03-17T11:21:20;98274.47;;;1.32;38.54
45991;BME280;31721;41.740;-88.000;2024-03-17T11:24:03;98273.44;;;1.25;38.65
45991;BME280;31721;41.740;-88.000;2024-03-17T11:26:33;98272.03;;;1.48;38.70
45991;BME280;31721;41.740;-88.000;2024-03-17T11:29:01;98270.39;;;1.32;37.97
45991;BME280;31721;41.740;-88.000;2024-03-17T11:31:40;98263.19;;;1.21;38.71
45991;BME280;31721;41.740;-88.000;2024-03-17T11:34:35;98262.40;;;1.14;38.88
45991;BME280;31721;41.740;-88.000;2024-03-17T11:37:04;98266.30;;;1.08;38.60
45991;BME280;31721;41.740;-88.000;2024-03-17T11:40:23;98265.82;;;1.01;38.35
45991;BME280;31721;41.740;-88.000;2024-03-17T11:43:01;98260.64;;;1.14;38.68
45991;BME280;31721;41.740;-88.000;2024-03-17T11:45:29;98259.88;;;1.03;38.96
45991;BME280;31721;41.740;-88.000;2024-03-17T11:47:56;98255.86;;;1.24;39.19
45991;BME280;31721;41.740;-88.000;2024-03-17T11:50:25;98257.61;;;1.18;39.06
45991;BME280;31721;41.740;-88.000;2024-03-17T11:52:58;98257.44;;;1.20;38.91
45991;BME280;31721;41.740;-88.000;2024-03-17T11:55:26;98260.15;;;1.35;39.42
45991;BME280;31721;41.740;-88.000;2024-03-17T11:57:56;98263.00;;;1.12;39.13
45991;BME280;31721;41.740;-88.000;2024-03-17T12:00:24;98264.58;;;0.93;38.75
45991;BME280;31721;41.740;-88.000;2024-03-17T12:02:53;98266.53;;;1.05;39.03
45991;BME280;31721;41.740;-88.000;2024-03-17T12:05:21;98265.51;;;1.15;38.99
45991;BME280;31721;41.740;-88.000;2024-03-17T12:07:49;98265.63;;;1.20;39.12
45991;BME280;31721;41.740;-88.000;2024-03-17T12:10:18;98263.82;;;1.22;39.33
45991;BME280;31721;41.740;-88.000;2024-03-17T12:12:47;98266.21;;;1.23;39.19
45991;BME280;31721;41.740;-88.000;2024-03-17T12:15:18;98265.73;;;1.20;39.01
45991;BME280;31721;41.740;-88.000;2024-03-17T12:17:45;98267.03;;;0.68;39.16
45991;BME280;31721;41.740;-88.000;2024-03-17T12:20:18;98270.33;;;0.98;39.18
45991;BME280;31721;41.740;-88.000;2024-03-17T12:22:47;98274.93;;;1.10;39.33
45991;BME280;31721;41.740;-88.000;2024-03-17T12:25:18;98277.60;;;0.82;39.59
45991;BME280;31721;41.740;-88.000;2024-03-17T12:27:46;98283.39;;;1.17;39.70
45991;BME280;31721;41.740;-88.000;2024-03-17T12:30:15;98286.09;;;0.95;39.54
45991;BME280;31721;41.740;-88.000;2024-03-17T12:32:43;98284.19;;;1.06;39.48
45991;BME280;31721;41.740;-88.000;2024-03-17T12:35:14;98286.54;;;0.84;39.20
45991;BME280;31721;41.740;-88.000;2024-03-17T12:37:44;98290.80;;;1.04;39.48
45991;BME280;31721;41.740;-88.000;2024-03-17T12:40:21;98294.26;;;1.09;39.61
45991;BME280;31721;41.740;-88.000;2024-03-17T12:42:50;98297.14;;;1.14;39.72
45991;BME280;31721;41.740;-88.000;2024-03-17T12:45:21;98303.67;;;1.35;39.94
45991;BME280;31721;41.740;-88.000;2024-03-17T12:47:51;98302.50;;;1.42;39.91
45991;BME280;31721;41.740;-88.000;2024-03-17T12:50:19;98298.68;;;0.90;39.78
45991;BME280;31721;41.740;-88.000;2024-03-17T12:52:55;98299.68;;;0.83;39.94
45991;BME280;31721;41.740;-88.000;2024-03-17T12:55:23;98302.21;;;1.24;39.83
45991;BME280;31721;41.740;-88.000;2024-03-17T12:57:52;98300.17;;;0.74;39.70